Time,TemperatureF,DewpointF,PressureIn,WindDirection,WindDirectionDegrees,WindSpeedMPH,WindSpeedGustMPH,Humidity,HourlyPrecipIn,Conditions,Clouds,dailyrainin,SoftwareType,DateUTC
2013-08-01 00:12:00,67.6,54.6,29.77,South,191,0.0,0.0,63,0.00,,,0.00,Wunderground v.1.15,2013-08-01 06:12:00,
2013-08-01 00:17:00,67.3,54.7,29.77,South,191,0.0,0.0,64,0.00,,,0.00,Wunderground v.1.15,2013-08-01 06:17:00,
2013-08-01 00:27:00,66.8,54.7,29.79,South,191,0.0,0.0,65,0.00,,,0.00,Wunderground v.1.15,2013-08-01 06:27:00,
2013-08-01 00:32:00,66.6,54.9,29.79,South,191,0.0,0.0,66,0.00,,,0.00,Wunderground v.1.15,2013-08-01 06:32:00,
2013-08-01 00:42:00,66.3,54.6,29.78,South,191,0.0,0.0,66,0.00,,,0.00,Wunderground v.1.15,2013-08-01 06:42:00,
2013-08-01 00:47:00,66.1,54.0,29.78,South,191,0.0,0.0,65,0.00,,,0.00,Wunderground v.1.15,2013-08-01 06:47:00,
2013-08-01 00:52:00,66.0,54.3,29.77,ENE,75,0.0,0.0,66,0.00,,,0.00,Wunderground v.1.15,2013-08-01 06:52:00,
2013-08-01 00:57:00,66.0,54.3,29.77,ENE,75,0.0,0.0,66,0.00,,,0.00,Wunderground v.1.15,2013-08-01 06:57:00,
2013-08-01 01:11:00,65.8,53.7,29.76,ENE,75,0.0,0.0,65,0.00,,,0.00,Wunderground v.1.15,2013-08-01 07:11:00,
2013-08-01 01:17:00,65.8,53.7,29.76,ENE,75,0.0,0.0,65,0.00,,,0.00,Wunderground v.1.15,2013-08-01 07:17:00,
2013-08-01 01:26:00,65.8,53.7,29.75,ENE,75,0.0,0.0,65,0.00,,,0.00,Wunderground v.1.15,2013-08-01 07:26:00,
2013-08-01 01:32:00,65.6,53.5,29.75,ENE,75,0.0,0.0,65,0.00,,,0.00,Wunderground v.1.15,2013-08-01 07:32:00,
2013-08-01 01:37:00,65.6,53.5,29.75,ENE,75,0.0,0.0,65,0.00,,,0.00,Wunderground v.1.15,2013-08-01 07:37:00,
2013-08-01 01:42:00,65.6,53.5,29.75,ENE,75,0.0,0.0,65,0.00,,,0.00,Wunderground v.1.15,2013-08-01 07:42:00,
2013-08-01 01:52:00,65.5,53.4,29.75,ENE,61,0.0,0.0,65,0.00,,,0.00,Wunderground v.1.15,2013-08-01 07:52:00,
2013-08-01 01:57:00,65.5,53.4,29.75,ENE,61,0.0,0.0,65,0.00,,,0.00,Wunderground v.1.15,2013-08-01 07:57:00,
2013-08-01 02:12:00,65.3,53.2,29.75,ENE,61,0.0,0.0,65,0.00,,,0.00,Wunderground v.1.15,2013-08-01 08:12:00,
2013-08-01 02:17:00,65.2,53.1,29.75,ENE,61,0.0,0.0,65,0.00,,,0.00,Wunderground v.1.15,2013-08-01 08:17:00,
2013-08-01 13:27:00,-999.9,-99.9,29.69,North,32767,-999.0,0.0,255,-99.99,,,0.00,Wunderground v.1.15,2013-08-01 19:27:00,
2013-08-01 13:32:00,-999.9,-99.9,29.69,North,32767,-999.0,0.0,255,-99.99,,,0.00,Wunderground v.1.15,2013-08-01 19:32:00,
2013-08-01 13:37:00,-999.9,-99.9,29.70,North,32767,-999.0,0.0,255,-99.99,,,0.00,Wunderground v.1.15,2013-08-01 19:37:00,
2013-08-01 13:42:00,-999.9,-99.9,29.70,South,188,3.0,3.0,255,-99.99,,,0.00,Wunderground v.1.15,2013-08-01 19:42:00,
2013-08-01 13:52:00,85.9,43.8,29.60,SSW,198,1.0,1.0,23,0.00,,,0.00,Wunderground v.1.15,2013-08-01 19:52:00,
2013-08-01 13:57:00,84.9,43.0,29.60,SSW,198,1.0,1.0,23,0.00,,,0.00,Wunderground v.1.15,2013-08-01 19:57:00,
2013-08-01 14:02:00,84.9,43.0,29.60,SSW,198,1.0,1.0,23,0.00,,,0.00,Wunderground v.1.15,2013-08-01 20:02:00,
2013-08-01 14:12:00,83.8,42.0,29.62,SSW,202,1.0,4.0,23,0.00,,,0.00,Wunderground v.1.15,2013-08-01 20:12:00,
2013-08-01 14:17:00,83.0,43.5,29.62,SSW,208,2.0,6.0,25,0.00,,,0.00,Wunderground v.1.15,2013-08-01 20:17:00,
2013-08-01 14:26:00,81.8,44.5,29.64,SSE,160,2.0,2.0,27,0.00,,,0.00,Wunderground v.1.15,2013-08-01 20:26:00,
2013-08-01 14:37:00,81.6,44.4,29.66,South,191,1.0,1.0,27,0.00,,,0.00,Wunderground v.1.15,2013-08-01 20:37:00,
2013-08-01 14:47:00,81.2,44.0,29.66,SW,222,3.0,3.0,27,0.00,,,0.00,Wunderground v.1.15,2013-08-01 20:47:00,
2013-08-01 14:52:00,81.1,43.9,29.65,SW,220,2.0,5.0,27,0.00,,,0.00,Wunderground v.1.15,2013-08-01 20:52:00,
2013-08-01 14:57:00,81.1,43.9,29.65,SW,216,2.0,5.0,27,0.00,,,0.00,Wunderground v.1.15,2013-08-01 20:57:00,
2013-08-01 15:02:00,81.1,43.9,29.65,SW,216,1.0,1.0,27,0.00,,,0.00,Wunderground v.1.15,2013-08-01 21:02:00,
2013-08-01 15:12:00,80.9,45.7,29.64,SW,216,0.0,1.0,29,0.00,,,0.00,Wunderground v.1.15,2013-08-01 21:12:00,
2013-08-01 15:17:00,80.9,45.7,29.64,SW,216,0.0,1.0,29,0.00,,,0.00,Wunderground v.1.15,2013-08-01 21:17:00,
2013-08-01 15:22:00,80.9,45.7,29.62,SSE,155,1.0,1.0,29,0.00,,,0.00,Wunderground v.1.15,2013-08-01 21:22:00,
2013-08-01 15:27:00,80.7,45.5,29.62,SSW,213,1.0,1.0,29,0.00,,,0.00,Wunderground v.1.15,2013-08-01 21:27:00,
2013-08-01 15:37:00,80.7,45.5,29.63,SSW,213,2.0,3.0,29,0.00,,,0.00,Wunderground v.1.15,2013-08-01 21:37:00,
2013-08-01 15:42:00,80.9,45.7,29.63,SSW,213,2.0,7.0,29,0.00,,,0.00,Wunderground v.1.15,2013-08-01 21:42:00,
2013-08-01 15:52:00,81.2,45.0,29.62,SSW,213,2.0,2.0,28,0.00,,,0.00,Wunderground v.1.15,2013-08-01 21:52:00,
2013-08-01 15:57:00,81.4,46.1,29.62,SSW,213,2.0,6.0,29,0.00,,,0.00,Wunderground v.1.15,2013-08-01 21:57:00,
2013-08-01 16:02:00,82.0,45.7,29.62,SW,220,2.0,8.0,28,0.00,,,0.00,Wunderground v.1.15,2013-08-01 22:02:00,
2013-08-01 16:11:00,82.4,44.1,29.62,SSW,203,5.0,6.0,26,0.00,,,0.00,Wunderground v.1.15,2013-08-01 22:11:00,
2013-08-01 16:17:00,82.4,46.0,29.62,SW,215,4.0,6.0,28,0.00,,,0.00,Wunderground v.1.15,2013-08-01 22:17:00,
2013-08-01 16:31:00,82.2,44.9,29.62,SSW,210,2.0,3.0,27,0.00,,,0.00,Wunderground v.1.15,2013-08-01 22:31:00,
2013-08-01 16:37:00,82.4,45.1,29.62,SSW,212,2.0,3.0,27,0.00,,,0.00,Wunderground v.1.15,2013-08-01 22:37:00,
2013-08-01 16:42:00,83.0,45.6,29.62,SSW,212,1.0,1.0,27,0.00,,,0.00,Wunderground v.1.15,2013-08-01 22:42:00,
2013-08-01 16:52:00,83.4,45.9,29.60,SSW,212,0.0,0.0,27,0.00,,,0.00,Wunderground v.1.15,2013-08-01 22:52:00,
2013-08-01 17:02:00,83.4,45.9,29.60,SSW,212,1.0,1.0,27,0.00,,,0.00,Wunderground v.1.15,2013-08-01 23:02:00,
2013-08-01 17:12:00,82.6,46.2,29.60,SSW,210,1.0,1.0,28,0.00,,,0.00,Wunderground v.1.15,2013-08-01 23:12:00,
2013-08-01 17:17:00,82.6,46.2,29.60,SSW,210,1.0,1.0,28,0.00,,,0.00,Wunderground v.1.15,2013-08-01 23:17:00,
2013-08-01 17:22:00,82.2,45.8,29.60,SSW,210,1.0,1.0,28,0.00,,,0.00,Wunderground v.1.15,2013-08-01 23:22:00,
2013-08-01 17:27:00,82.0,45.7,29.60,SSW,210,0.0,1.0,28,0.00,,,0.00,Wunderground v.1.15,2013-08-01 23:27:00,
2013-08-01 17:32:00,82.0,45.7,29.60,SSW,210,0.0,0.0,28,0.00,,,0.00,Wunderground v.1.15,2013-08-01 23:32:00,
2013-08-01 17:46:00,82.2,47.7,29.61,SSW,210,0.0,0.0,30,0.00,,,0.00,Wunderground v.1.15,2013-08-01 23:46:00,
2013-08-01 17:51:00,82.2,45.8,29.60,SSW,210,0.0,0.0,28,0.00,,,0.00,Wunderground v.1.15,2013-08-01 23:51:00,
2013-08-01 17:56:00,82.0,49.2,29.60,SSW,210,0.0,0.0,32,0.00,,,0.00,Wunderground v.1.15,2013-08-01 23:56:00,
2013-08-01 18:02:00,82.0,47.5,29.60,SSW,210,0.0,0.0,30,0.00,,,0.00,Wunderground v.1.15,2013-08-02 00:02:00,
2013-08-01 18:12:00,81.8,49.1,29.60,SSW,210,0.0,0.0,32,0.00,,,0.00,Wunderground v.1.15,2013-08-02 00:12:00,
2013-08-01 18:17:00,81.8,48.2,29.60,SSW,210,0.0,0.0,31,0.00,,,0.00,Wunderground v.1.15,2013-08-02 00:17:00,
2013-08-01 18:22:00,81.6,47.2,29.59,SSW,210,0.0,0.0,30,0.00,,,0.00,Wunderground v.1.15,2013-08-02 00:22:00,
2013-08-01 18:27:00,81.6,45.3,29.59,SSW,210,0.0,0.0,28,0.00,,,0.00,Wunderground v.1.15,2013-08-02 00:27:00,
2013-08-01 18:32:00,81.4,47.0,29.59,SSW,210,0.0,0.0,30,0.00,,,0.00,Wunderground v.1.15,2013-08-02 00:32:00,
2013-08-01 18:42:00,81.1,45.8,29.59,SSW,210,0.0,0.0,29,0.00,,,0.00,Wunderground v.1.15,2013-08-02 00:42:00,
2013-08-01 18:47:00,80.9,47.4,29.59,SSW,210,0.0,0.0,31,0.00,,,0.00,Wunderground v.1.15,2013-08-02 00:47:00,
2013-08-01 18:56:00,80.3,46.9,29.59,SSW,210,0.0,0.0,31,0.00,,,0.00,Wunderground v.1.15,2013-08-02 00:56:00,
2013-08-01 19:01:00,80.1,45.9,29.59,SSW,210,0.0,0.0,30,0.00,,,0.00,Wunderground v.1.15,2013-08-02 01:01:00,
2013-08-01 19:12:00,79.8,46.5,29.59,SSW,210,0.0,1.0,31,0.00,,,0.00,Wunderground v.1.15,2013-08-02 01:12:00,
2013-08-01 19:22:00,79.4,47.0,29.59,SSW,210,0.0,1.0,32,0.00,,,0.00,Wunderground v.1.15,2013-08-02 01:22:00,
2013-08-01 19:27:00,79.0,46.6,29.59,SSW,210,0.0,1.0,32,0.00,,,0.00,Wunderground v.1.15,2013-08-02 01:27:00,
2013-08-01 19:32:00,78.8,47.3,29.59,SSW,210,0.0,0.0,33,0.00,,,0.00,Wunderground v.1.15,2013-08-02 01:32:00,
2013-08-01 19:37:00,78.5,47.8,29.51,SSW,210,0.0,0.0,34,0.00,,,0.00,Wunderground v.1.15,2013-08-02 01:37:00,
2013-08-01 19:46:00,77.9,48.0,29.51,SSW,210,0.0,0.0,35,0.00,,,0.00,Wunderground v.1.15,2013-08-02 01:46:00,
2013-08-01 19:52:00,77.6,47.0,29.51,SSW,210,0.0,0.0,34,0.00,,,0.00,Wunderground v.1.15,2013-08-02 01:52:00,
2013-08-01 19:57:00,77.2,47.4,29.51,SSW,210,0.0,0.0,35,0.00,,,0.00,Wunderground v.1.15,2013-08-02 01:57:00,
2013-08-01 20:12:00,76.3,48.1,29.53,SSW,210,0.0,0.0,37,0.00,,,0.00,Wunderground v.1.15,2013-08-02 02:12:00,
2013-08-01 20:17:00,76.0,49.2,29.53,SSW,210,0.0,0.0,39,0.00,,,0.00,Wunderground v.1.15,2013-08-02 02:17:00,
2013-08-01 20:26:00,75.1,48.4,29.55,SSW,210,0.0,0.0,39,0.00,,,0.00,Wunderground v.1.15,2013-08-02 02:26:00,
2013-08-01 20:31:00,74.9,48.3,29.55,SSW,210,0.0,0.0,39,0.00,,,0.00,Wunderground v.1.15,2013-08-02 02:31:00,
2013-08-01 20:37:00,74.6,48.7,29.56,SSW,210,0.0,0.0,40,0.00,,,0.00,Wunderground v.1.15,2013-08-02 02:37:00,
2013-08-01 20:42:00,74.0,49.4,29.56,SSW,210,0.0,0.0,42,0.00,,,0.00,Wunderground v.1.15,2013-08-02 02:42:00,
2013-08-01 20:47:00,73.7,49.2,29.56,SSW,210,0.0,0.0,42,0.00,,,0.00,Wunderground v.1.15,2013-08-02 02:47:00,
2013-08-01 20:57:00,73.5,49.0,29.57,SSW,210,0.0,0.0,42,0.00,,,0.00,Wunderground v.1.15,2013-08-02 02:57:00,
2013-08-01 21:02:00,73.7,49.2,29.57,SSW,210,0.0,0.0,42,0.00,,,0.00,Wunderground v.1.15,2013-08-02 03:02:00,
2013-08-01 21:12:00,73.7,50.4,29.57,SSW,210,0.0,0.0,44,0.00,,,0.00,Wunderground v.1.15,2013-08-02 03:12:00,
2013-08-01 21:17:00,73.7,50.4,29.57,SSW,210,0.0,0.0,44,0.00,,,0.00,Wunderground v.1.15,2013-08-02 03:17:00,
2013-08-01 21:22:00,73.9,50.6,29.58,SSW,210,0.0,0.0,44,0.00,,,0.00,Wunderground v.1.15,2013-08-02 03:22:00,
2013-08-01 21:27:00,74.0,50.1,29.58,SSW,210,0.0,0.0,43,0.00,,,0.00,Wunderground v.1.15,2013-08-02 03:27:00,
2013-08-01 21:37:00,74.0,49.4,29.55,SSW,210,0.0,0.0,42,0.00,,,0.00,Wunderground v.1.15,2013-08-02 03:37:00,
2013-08-01 21:47:00,73.9,50.6,29.55,SSW,210,0.0,0.0,44,0.00,,,0.00,Wunderground v.1.15,2013-08-02 03:47:00,
2013-08-01 21:56:00,73.7,50.4,29.57,SSW,210,0.0,0.0,44,0.00,,,0.00,Wunderground v.1.15,2013-08-02 03:56:00,
2013-08-01 22:02:00,73.5,50.9,29.57,SSW,210,0.0,0.0,45,0.00,,,0.00,Wunderground v.1.15,2013-08-02 04:02:00,
2013-08-01 22:12:00,72.8,51.4,29.56,SSW,210,0.0,0.0,47,0.00,,,0.00,Wunderground v.1.15,2013-08-02 04:12:00,
2013-08-01 22:17:00,72.5,51.1,29.56,SSW,210,0.0,0.0,47,0.00,,,0.00,Wunderground v.1.15,2013-08-02 04:17:00,
2013-08-01 22:22:00,72.0,51.2,29.58,SSW,210,0.0,0.0,48,0.00,,,0.00,Wunderground v.1.15,2013-08-02 04:22:00,
2013-08-01 22:27:00,71.5,51.3,29.58,SSW,210,0.0,0.0,49,0.00,,,0.00,Wunderground v.1.15,2013-08-02 04:27:00,
2013-08-01 22:32:00,70.9,50.8,29.58,SSW,210,0.0,0.0,49,0.00,,,0.00,Wunderground v.1.15,2013-08-02 04:32:00,
2013-08-01 22:37:00,70.8,50.7,29.53,SSW,210,0.0,0.0,49,0.00,,,0.00,Wunderground v.1.15,2013-08-02 04:37:00,
2013-08-01 22:42:00,70.6,51.1,29.53,SSW,210,0.0,0.0,50,0.00,,,0.00,Wunderground v.1.15,2013-08-02 04:42:00,
2013-08-01 22:47:00,70.3,50.8,29.53,SSW,210,0.0,0.0,50,0.00,,,0.00,Wunderground v.1.15,2013-08-02 04:47:00,
2013-08-01 22:57:00,69.6,50.7,29.53,SSW,210,0.0,0.0,51,0.00,,,0.00,Wunderground v.1.15,2013-08-02 04:57:00,
2013-08-01 23:02:00,69.1,50.7,29.53,SSW,210,0.0,0.0,52,0.00,,,0.00,Wunderground v.1.15,2013-08-02 05:02:00,
2013-08-01 23:11:00,68.4,50.1,29.54,SSW,210,0.0,0.0,52,0.00,,,0.00,Wunderground v.1.15,2013-08-02 05:11:00,
2013-08-01 23:17:00,68.1,50.8,29.54,SSW,210,0.0,0.0,54,0.00,,,0.00,Wunderground v.1.15,2013-08-02 05:17:00,
2013-08-01 23:22:00,67.6,50.4,29.54,SSW,210,0.0,0.0,54,0.00,,,0.00,Wunderground v.1.15,2013-08-02 05:22:00,
2013-08-01 23:27:00,67.3,50.6,29.54,SSW,210,0.0,0.0,55,0.00,,,0.00,Wunderground v.1.15,2013-08-02 05:27:00,
2013-08-01 23:37:00,66.4,50.7,29.52,SSW,210,0.0,0.0,57,0.00,,,0.00,Wunderground v.1.15,2013-08-02 05:37:00,
2013-08-01 23:42:00,66.0,50.3,29.52,SSW,210,0.0,0.0,57,0.00,,,0.00,Wunderground v.1.15,2013-08-02 05:42:00,
2013-08-01 23:47:00,65.6,50.4,29.52,SSW,210,0.0,0.0,58,0.00,,,0.00,Wunderground v.1.15,2013-08-02 05:47:00,
2013-08-01 23:57:00,65.0,50.3,29.53,SSW,210,0.0,0.0,59,0.00,,,0.00,Wunderground v.1.15,2013-08-02 05:57:00,